Time;durP1;ratioP1;P1;durP2;ratioP2;P2;SDS_P1;SDS_P2;PMS_P1;PMS_P2;Temp;Humidity;BMP_temperature;BMP_pressure;BME280_temperature;BME280_humidity;BME280_pressure;Samples;Min_cycle;Max_cycle;Signal;HPM_P1;HPM_P2
2022/05/29 00:01:53;;;;;;;11.75;7.55;;;;;;;15.14;100.00;100645.39;1689919;83;21008;-86
2022/05/29 00:04:21;;;;;;;8.38;6.62;;;;;;;15.11;100.00;100649.61;1690309;83;21144;-85
2022/05/29 00:06:52;;;;;;;7.87;5.97;;;;;;;15.10;100.00;100639.27;1689773;83;21083;-82
2022/05/29 00:09:35;;;;;;;6.75;5.25;;;;;;;15.11;100.00;100641.73;1690005;83;21373;-82
2022/05/29 00:12:06;;;;;;;6.70;5.03;;;;;;;15.15;100.00;100639.65;1684882;83;21060;-84
2022/05/29 00:14:34;;;;;;;6.03;5.42;;;;;;;15.17;100.00;100627.23;1687238;83;21079;-82
2022/05/29 00:17:02;;;;;;;8.78;5.10;;;;;;;15.14;100.00;100624.41;1680167;84;21819;-83
2022/05/29 00:19:30;;;;;;;5.65;5.05;;;;;;;15.09;100.00;100622.72;1672872;84;21093;-83
2022/05/29 00:21:58;;;;;;;5.60;4.78;;;;;;;15.08;100.00;100615.82;1679916;84;21549;-84
2022/05/29 00:24:25;;;;;;;5.37;4.55;;;;;;;15.08;100.00;100611.89;1680169;84;21063;-85
2022/05/29 00:26:53;;;;;;;5.42;4.75;;;;;;;15.09;100.00;100600.43;1672672;84;21041;-83
2022/05/29 00:29:21;;;;;;;4.95;4.45;;;;;;;15.10;100.00;100598.12;1679938;84;21167;-84
2022/05/29 00:31:49;;;;;;;6.70;4.55;;;;;;;15.09;100.00;100610.92;1680107;84;21024;-84
2022/05/29 00:34:17;;;;;;;5.00;4.50;;;;;;;15.08;100.00;100614.98;1672586;84;21022;-83
2022/05/29 00:36:44;;;;;;;6.90;4.08;;;;;;;15.09;100.00;100623.19;1680127;84;21538;-84
2022/05/29 00:39:14;;;;;;;5.70;4.20;;;;;;;15.09;100.00;100621.41;1680379;84;21361;-83
2022/05/29 00:41:42;;;;;;;4.63;4.20;;;;;;;15.08;100.00;100623.69;1672742;84;21238;-82
2022/05/29 00:44:23;;;;;;;4.28;3.87;;;;;;;15.07;100.00;100622.03;1679981;84;21044;-83
2022/05/29 00:46:56;;;;;;;;;;;;;;;15.10;100.00;100626.16;1674863;84;21069;-85
2022/05/29 00:49:30;;;;;;;4.47;3.87;;;;;;;15.14;100.00;100623.10;1672549;84;20171;-83
2022/05/29 00:52:22;;;;;;;5.40;3.77;;;;;;;15.19;100.00;100619.20;1679945;84;21087;-82
2022/05/29 00:54:54;;;;;;;5.75;3.77;;;;;;;15.23;100.00;100616.14;1669844;84;21562;-86
2022/05/29 00:57:34;;;;;;;5.22;3.87;;;;;;;15.28;100.00;100613.09;1680279;84;21111;-83
2022/05/29 01:00:16;;;;;;;6.47;4.50;;;;;;;15.28;100.00;100611.77;1672845;84;21021;-83
2022/05/29 01:02:45;;;;;;;4.62;4.20;;;;;;;15.26;100.00;100604.06;1680059;84;21533;-82
2022/05/29 01:05:16;;;;;;;4.75;4.28;;;;;;;15.24;100.00;100601.25;1672536;84;21567;-84
2022/05/29 01:07:52;;;;;;;4.53;4.08;;;;;;;15.19;100.00;100614.80;1680278;84;21092;-83
2022/05/29 01:10:21;;;;;;;4.75;4.25;;;;;;;15.13;100.00;100616.70;1669599;84;21626;-83
2022/05/29 01:12:59;;;;;;;4.45;3.52;;;;;;;15.10;100.00;100629.59;1680431;84;21100;-83
2022/05/29 01:15:46;;;;;;;4.22;3.83;;;;;;;15.01;100.00;100633.11;1676587;84;21555;-82
2022/05/29 01:18:31;;;;;;;6.10;4.95;;;;;;;14.88;100.00;100620.78;1685723;83;21756;-83
2022/05/29 01:21:48;;;;;;;6.03;4.62;;;;;;;14.79;100.00;100625.09;1680463;83;21582;-83
2022/05/29 01:24:49;;;;;;;6.50;5.58;;;;;;;14.69;100.00;100624.30;1686929;83;21585;-82
2022/05/29 01:27:51;;;;;;;6.37;4.40;;;;;;;14.67;100.00;100623.95;1688000;83;21577;-82
2022/05/29 01:30:24;;;;;;;7.53;5.85;;;;;;;14.67;100.00;100622.63;1687690;83;21048;-82
2022/05/29 01:33:03;;;;;;;7.70;5.78;;;;;;;14.70;100.00;100622.86;1687921;83;21088;-82
2022/05/29 01:35:44;;;;;;;8.13;6.22;;;;;;;14.72;100.00;100617.47;1668923;84;22008;-83
2022/05/29 01:38:37;;;;;;;6.60;5.58;;;;;;;14.74;100.00;100625.52;1683897;83;21076;-84
2022/05/29 01:41:33;;;;;;;8.38;5.92;;;;;;;14.75;100.00;100626.34;1672242;84;21026;-87
2022/05/29 01:44:21;;;;;;;7.17;6.03;;;;;;;14.69;100.00;100634.77;1687546;83;21093;-83
2022/05/29 01:46:54;;;;;;;6.75;5.87;;;;;;;14.53;100.00;100640.58;1678025;83;21012;-85
2022/05/29 01:49:32;;;;;;;7.90;5.87;;;;;;;14.47;100.00;100645.40;1666439;84;21166;-82
2022/05/29 01:52:17;;;;;;;6.30;5.65;;;;;;;14.51;100.00;100639.39;1687497;83;21608;-83
2022/05/29 01:55:05;;;;;;;6.15;5.58;;;;;;;14.60;100.00;100634.63;1681592;83;21013;-84
2022/05/29 01:57:37;;;;;;;8.33;6.28;;;;;;;14.70;100.00;100640.36;1670692;84;21060;-84
2022/05/29 02:00:21;;;;;;;6.92;5.30;;;;;;;14.79;100.00;100640.83;1684196;83;21085;-82
2022/05/29 02:03:08;;;;;;;8.08;5.20;;;;;;;14.87;100.00;100635.70;1688099;83;21798;-83
2022/05/29 02:05:40;;;;;;;6.55;5.45;;;;;;;14.96;100.00;100640.55;1688193;83;21072;-84
2022/05/29 02:08:21;;;;;;;9.60;5.78;;;;;;;15.03;100.00;100649.50;1684771;83;21059;-84
2022/05/29 02:10:57;;;;;;;7.50;5.95;;;;;;;15.09;100.00;100659.44;1684534;83;21554;-84
2022/05/29 02:13:38;;;;;;;6.47;5.35;;;;;;;15.13;100.00;100662.59;1684898;83;21045;-82
2022/05/29 02:16:13;;;;;;;9.03;5.80;;;;;;;15.17;100.00;100657.89;1647198;84;39954;-83
2022/05/29 02:19:01;;;;;;;6.33;5.25;;;;;;;15.21;100.00;100653.98;1687434;83;21139;-83
2022/05/29 02:21:46;;;;;;;7.60;5.17;;;;;;;15.24;100.00;100660.27;1681546;83;21131;-83
2022/05/29 02:24:17;;;;;;;8.23;5.50;;;;;;;15.26;100.00;100655.22;1677967;83;21021;-85
2022/05/29 02:27:11;;;;;;;6.37;5.62;;;;;;;15.28;100.00;100658.99;1679077;83;21081;-86
2022/05/29 02:29:39;;;;;;;8.05;5.30;;;;;;;15.26;100.00;100657.02;1681347;83;21107;-83
2022/05/29 02:32:30;;;;;;;6.20;5.60;;;;;;;15.25;100.00;100656.18;1652793;85;21044;-84
2022/05/29 02:35:24;;;;;;;7.87;6.80;;;;;;;15.24;100.00;100647.97;1689892;83;21194;-83
2022/05/29 02:38:09;;;;;;;8.20;4.97;;;;;;;15.17;100.00;100634.28;1689624;83;21017;-82
2022/05/29 02:40:59;;;;;;;6.45;5.22;;;;;;;15.12;100.00;100646.52;1685557;83;21020;-83
2022/05/29 02:43:35;;;;;;;7.55;4.72;;;;;;;15.10;100.00;100655.00;1687003;83;21276;-82
2022/05/29 02:46:10;;;;;;;5.92;5.30;;;;;;;15.08;100.00;100652.53;1686077;83;21546;-85
2022/05/29 02:49:03;;;;;;;6.83;5.92;;;;;;;15.03;100.00;100652.12;1651090;83;21041;-84
2022/05/29 02:51:38;;;;;;;8.58;5.25;;;;;;;15.02;100.00;100658.83;1690026;83;21016;-84
2022/05/29 02:54:05;;;;;;;7.15;5.00;;;;;;;15.01;100.00;100662.41;1684492;83;21130;-84
2022/05/29 02:56:32;;;;;;;4.95;4.45;;;;;;;15.01;100.00;100660.64;1689935;83;21766;-85
2022/05/29 02:59:00;;;;;;;4.87;4.12;;;;;;;15.01;100.00;100650.61;1682252;83;21116;-83
2022/05/29 03:01:51;;;;;;;5.28;4.15;;;;;;;15.03;100.00;100652.12;1689737;83;21067;-83
2022/05/29 03:04:57;;;;;;;6.58;3.77;;;;;;;15.05;100.00;100660.67;1626396;83;21101;-86
2022/05/29 03:07:52;;;;;;;6.28;3.92;;;;;;;15.10;100.00;100664.99;1593905;85;21093;-82
2022/05/29 03:10:38;;;;;;;6.10;3.98;;;;;;;15.17;100.00;100667.87;1689676;83;21612;-83
2022/05/29 03:13:13;;;;;;;5.80;3.85;;;;;;;15.19;100.00;100667.25;1689363;83;22039;-83
2022/05/29 03:16:05;;;;;;;5.10;3.85;;;;;;;15.21;100.00;100667.95;1684220;83;21576;-83
2022/05/29 03:19:05;;;;;;;6.60;4.90;;;;;;;15.23;100.00;100672.54;1677594;84;21040;-83
2022/05/29 03:21:59;;;;;;;4.37;3.92;;;;;;;15.25;100.00;100678.98;1672564;84;21029;-82
2022/05/29 03:25:00;;;;;;;5.50;4.05;;;;;;;15.29;100.00;100675.08;1627549;85;21483;-84
2022/05/29 03:27:39;;;;;;;4.92;4.20;;;;;;;15.33;100.00;100683.48;1680111;84;21533;-84
2022/05/29 03:30:12;;;;;;;4.83;4.33;;;;;;;15.38;100.00;100692.58;1669664;84;21574;-85
2022/05/29 03:32:42;;;;;;;4.40;4.00;;;;;;;15.40;100.00;100696.36;1680298;84;21040;-86
2022/05/29 03:35:20;;;;;;;4.90;4.45;;;;;;;15.36;100.00;100695.83;1672759;84;21093;-83
2022/05/29 03:37:49;;;;;;;6.08;4.15;;;;;;;15.25;100.00;100696.02;1680117;84;21040;-84
2022/05/29 03:40:17;;;;;;;5.97;4.80;;;;;;;15.08;100.00;100695.80;1680182;84;21013;-83
2022/05/29 03:42:44;;;;;;;8.28;5.60;;;;;;;15.03;100.00;100698.01;1680076;84;21067;-85
2022/05/29 03:45:12;;;;;;;5.17;4.58;;;;;;;14.97;100.00;100700.73;1680021;84;21033;-85
2022/05/29 03:47:40;;;;;;;7.08;4.53;;;;;;;14.97;100.00;100722.18;1680533;84;21116;-85
2022/05/29 03:50:13;;;;;;;6.87;5.08;;;;;;;14.99;100.00;100745.16;1680108;84;22358;-84
2022/05/29 03:52:40;;;;;;;6.03;4.60;;;;;;;15.02;100.00;100747.98;1680220;84;22263;-83
2022/05/29 03:55:10;;;;;;;5.20;4.62;;;;;;;14.99;100.00;100736.80;1680145;84;21621;-83
2022/05/29 03:57:38;;;;;;;5.75;4.67;;;;;;;14.99;100.00;100730.24;1672351;84;21031;-85
2022/05/29 04:00:11;;;;;;;5.40;4.65;;;;;;;15.01;100.00;100713.08;1680288;84;21750;-84
2022/05/29 04:02:43;;;;;;;6.60;4.35;;;;;;;15.01;100.00;100715.70;1672528;84;21265;-84
2022/05/29 04:05:15;;;;;;;4.60;3.62;;;;;;;14.99;100.00;100721.06;1672242;84;21487;-84
2022/05/29 04:13:15;;;;;;;4.12;3.72;;;;;;;14.96;100.00;100751.98;1670441;84;21688;-85
2022/05/29 04:15:45;;;;;;;4.28;3.80;;;;;;;14.87;100.00;100753.67;1676483;83;21869;-86
2022/05/29 04:18:15;;;;;;;4.62;3.98;;;;;;;14.78;100.00;100772.84;1690207;83;21541;-84
2022/05/29 04:20:43;;;;;;;5.80;4.00;;;;;;;14.65;100.00;100795.38;1689503;83;21031;-84
2022/05/29 04:23:12;;;;;;;3.98;3.25;;;;;;;14.53;100.00;100818.75;1690129;83;21089;-85
2022/05/29 04:25:41;;;;;;;4.05;3.47;;;;;;;14.45;100.00;100819.42;1690217;83;21024;-85
2022/05/29 04:28:08;;;;;;;4.08;3.20;;;;;;;14.40;100.00;100791.01;1690027;83;21122;-88
2022/05/29 04:30:35;;;;;;;3.75;3.30;;;;;;;14.40;100.00;100763.50;1690262;83;21525;-85
2022/05/29 04:33:03;;;;;;;3.58;2.95;;;;;;;14.45;100.00;100753.45;1689906;83;21029;-84
2022/05/29 04:35:40;;;;;;;3.67;3.17;;;;;;;14.51;100.00;100742.42;1690144;83;21107;-85
2022/05/29 04:38:09;;;;;;;4.17;3.35;;;;;;;14.58;100.00;100746.61;1688180;83;21604;-87
2022/05/29 04:40:38;;;;;;;4.83;3.58;;;;;;;14.63;100.00;100751.44;1689994;83;21156;-84
2022/05/29 04:43:08;;;;;;;3.75;3.45;;;;;;;14.65;100.00;100763.92;1674626;83;21084;-83
2022/05/29 04:45:45;;;;;;;3.67;3.27;;;;;;;14.67;100.00;100772.52;1693980;82;21038;-85
2022/05/29 04:48:16;;;;;;;3.83;3.42;;;;;;;14.63;100.00;100771.09;1689981;83;21194;-84
2022/05/29 04:50:43;;;;;;;3.92;3.22;;;;;;;14.59;100.00;100781.52;1690007;83;21610;-88
2022/05/29 04:53:11;;;;;;;4.33;3.25;;;;;;;14.49;100.00;100782.83;1660821;83;21131;-87
2022/05/29 04:55:40;;;;;;;5.50;3.77;;;;;;;14.39;100.00;100794.59;1689952;83;21006;-86
2022/05/29 04:58:09;;;;;;;4.28;3.80;;;;;;;14.27;100.00;100804.36;1689957;83;21160;-84
2022/05/29 05:00:38;;;;;;;5.65;3.70;;;;;;;14.17;100.00;100800.41;1680735;83;21054;-86
2022/05/29 05:03:05;;;;;;;4.33;3.92;;;;;;;14.11;100.00;100791.80;1662139;84;21133;-83
2022/05/29 05:05:32;;;;;;;4.85;3.87;;;;;;;14.07;100.00;100773.38;1667880;84;21543;-83
2022/05/29 05:08:00;;;;;;;5.12;3.80;;;;;;;14.07;100.00;100776.48;1689973;83;21566;-84
2022/05/29 05:10:27;;;;;;;5.87;3.75;;;;;;;14.10;100.00;100769.68;1689997;83;21089;-84
2022/05/29 05:12:57;;;;;;;6.25;3.65;;;;;;;14.15;100.00;100778.77;1690309;83;21099;-86
2022/05/29 05:15:25;;;;;;;5.55;3.50;;;;;;;14.20;100.00;100787.53;1690042;83;21091;-82
2022/05/29 05:17:52;;;;;;;5.58;3.83;;;;;;;14.25;100.00;100794.52;1690042;83;21126;-82
2022/05/29 05:20:20;;;;;;;5.37;3.60;;;;;;;14.30;100.00;100803.28;1689915;83;21107;-83
2022/05/29 05:22:47;;;;;;;4.78;3.60;;;;;;;14.33;100.00;100805.15;1690122;83;21524;-82
2022/05/29 05:25:14;;;;;;;3.77;3.25;;;;;;;14.39;100.00;100812.11;1689583;83;21018;-83
2022/05/29 05:27:42;;;;;;;4.92;3.45;;;;;;;14.41;100.00;100812.31;1663252;84;21048;-84
2022/05/29 05:30:10;;;;;;;4.33;3.10;;;;;;;14.43;100.00;100803.84;1659802;86;21159;-83
2022/05/29 05:32:38;;;;;;;5.17;3.70;;;;;;;14.45;100.00;100800.61;1685139;83;21053;-85
2022/05/29 05:35:07;;;;;;;4.90;3.42;;;;;;;14.46;100.00;100797.50;1688764;83;21035;-85
2022/05/29 05:37:37;;;;;;;4.85;3.40;;;;;;;14.47;100.00;100788.19;1689396;83;21060;-85
2022/05/29 05:40:09;;;;;;;5.47;3.30;;;;;;;14.49;100.00;100786.27;1689473;83;21634;-88
2022/05/29 05:42:37;;;;;;;5.17;3.35;;;;;;;14.51;100.00;100786.12;1689226;83;21150;-87
2022/05/29 05:45:07;;;;;;;5.62;3.67;;;;;;;14.51;100.00;100772.55;1673339;83;21600;-83
2022/05/29 05:47:34;;;;;;;7.08;4.50;;;;;;;14.51;100.00;100780.41;1633474;86;21153;-84
2022/05/29 05:50:04;;;;;;;5.58;4.20;;;;;;;14.53;100.00;100784.20;1661720;84;21050;-85
2022/05/29 05:52:31;;;;;;;6.08;3.30;;;;;;;14.59;100.00;100784.13;1661784;84;21123;-84
2022/05/29 05:54:58;;;;;;;6.12;4.10;;;;;;;14.62;100.00;100789.11;1661926;84;21842;-85
2022/05/29 05:57:25;;;;;;;4.45;3.65;;;;;;;14.65;100.00;100784.42;1676535;83;21049;-85
2022/05/29 05:59:54;;;;;;;4.70;3.92;;;;;;;14.70;100.00;100785.82;1689607;83;21537;-82
2022/05/29 06:02:23;;;;;;;5.05;3.52;;;;;;;14.72;100.00;100774.22;1689472;83;21126;-83
2022/05/29 06:04:50;;;;;;;4.58;3.42;;;;;;;14.76;100.00;100769.53;1689399;83;21514;-84
2022/05/29 06:07:17;;;;;;;4.47;3.40;;;;;;;14.79;100.00;100781.88;1657949;83;21126;-83
2022/05/29 06:09:45;;;;;;;4.05;3.10;;;;;;;14.83;100.00;100788.98;1674305;84;21611;-84
2022/05/29 06:12:13;;;;;;;3.87;3.42;;;;;;;14.83;100.00;100793.75;1674344;84;21033;-85
2022/05/29 06:14:41;;;;;;;7.03;3.45;;;;;;;14.85;100.00;100795.41;1689199;83;21623;-86
2022/05/29 06:17:08;;;;;;;6.17;2.87;;;;;;;14.80;100.00;100799.27;1681425;82;22263;-85
2022/05/29 06:19:37;;;;;;;3.90;3.33;;;;;;;14.78;100.00;100805.61;1702533;82;21152;-84
2022/05/29 06:22:04;;;;;;;5.35;3.20;;;;;;;14.75;100.00;100805.88;1707252;82;21066;-87
2022/05/29 06:24:31;;;;;;;3.67;3.10;;;;;;;14.74;100.00;100810.80;1707551;82;21220;-86
2022/05/29 06:27:00;;;;;;;4.97;3.30;;;;;;;14.72;100.00;100812.23;1707543;82;21112;-85
2022/05/29 06:29:27;;;;;;;5.35;3.45;;;;;;;14.72;100.00;100817.97;1707276;82;21603;-83
2022/05/29 06:32:03;;;;;;;4.00;3.33;;;;;;;14.72;100.00;100806.98;1707719;82;21169;-85
2022/05/29 06:34:33;;;;;;;5.03;3.15;;;;;;;14.73;100.00;100809.14;1707598;82;21003;-85
2022/05/29 06:37:08;;;;;;;5.12;3.12;;;;;;;14.76;100.00;100802.30;1707530;82;21091;-86
2022/05/29 06:39:37;;;;;;;4.55;3.20;;;;;;;14.80;100.00;100807.63;1707824;82;21101;-80
2022/05/29 06:42:07;;;;;;;5.12;3.62;;;;;;;14.83;100.00;100801.62;1707690;82;21524;-80
2022/05/29 06:44:37;;;;;;;4.17;3.22;;;;;;;14.88;100.00;100796.42;1707363;82;21189;-82
2022/05/29 06:47:07;;;;;;;4.72;3.20;;;;;;;14.92;100.00;100796.52;1707515;82;21003;-81
2022/05/29 06:49:37;;;;;;;7.70;3.37;;;;;;;14.99;100.00;100787.92;1707800;82;21549;-81
2022/05/29 06:52:11;;;;;;;3.20;2.90;;;;;;;15.13;100.00;100789.80;1708040;82;21055;-81
2022/05/29 06:54:38;;;;;;;4.80;2.90;;;;;;;15.26;100.00;100790.80;1707446;82;21036;-84
2022/05/29 06:57:07;;;;;;;6.58;3.35;;;;;;;15.34;100.00;100784.83;1708259;82;21790;-83
2022/05/29 07:08:01;;;;;;;3.05;2.62;;;;;;;15.59;100.00;100782.05;1707917;82;21085;-84
2022/05/29 07:10:31;;;;;;;4.28;2.67;;;;;;;15.74;100.00;100780.59;1707716;82;21207;-83
2022/05/29 07:13:01;;;;;;;3.72;2.62;;;;;;;15.92;100.00;100787.73;1707826;82;21048;-82
2022/05/29 07:15:29;;;;;;;2.92;2.60;;;;;;;16.08;100.00;100785.30;1707960;82;21106;-85
2022/05/29 07:17:56;;;;;;;3.40;2.70;;;;;;;16.17;100.00;100775.72;1697279;82;21057;-83
2022/05/29 07:20:24;;;;;;;2.92;2.52;;;;;;;16.21;100.00;100779.69;1680117;84;21009;-83
2022/05/29 07:22:51;;;;;;;4.28;2.90;;;;;;;16.22;100.00;100780.53;1680117;84;21503;-84
2022/05/29 07:25:20;;;;;;;4.80;2.70;;;;;;;16.16;100.00;100775.38;1680437;84;21072;-82
2022/05/29 07:27:47;;;;;;;3.95;2.80;;;;;;;16.17;100.00;100785.39;1672529;84;20986;-83
2022/05/29 07:30:15;;;;;;;5.97;2.77;;;;;;;16.24;100.00;100787.76;1679740;84;20997;-82
2022/05/29 07:32:42;;;;;;;3.10;2.80;;;;;;;16.34;100.00;100787.72;1672501;84;21060;-83
2022/05/29 07:35:09;;;;;;;4.95;2.70;;;;;;;16.45;100.00;100800.62;1679892;84;22174;-86
2022/05/29 07:37:37;;;;;;;5.10;2.42;;;;;;;16.44;100.00;100796.34;1672450;84;21017;-84
2022/05/29 07:40:05;;;;;;;3.08;2.60;;;;;;;16.40;100.00;100805.51;1679782;84;21056;-83
2022/05/29 07:45:19;;;;;;;3.05;2.20;;;;;;;16.29;100.00;100812.28;1680034;84;21025;-83
2022/05/29 07:47:48;;;;;;;3.55;2.60;;;;;;;16.26;100.00;100813.41;1672447;84;21191;-83
2022/05/29 07:50:20;;;;;;;5.35;3.00;;;;;;;16.28;100.00;100822.44;1680151;84;21032;-85
2022/05/29 07:52:50;;;;;;;5.97;2.98;;;;;;;16.22;100.00;100816.81;1680127;84;21613;-84
2022/05/29 07:55:17;;;;;;;3.58;2.77;;;;;;;16.16;100.00;100820.51;1678448;84;20993;-83
2022/05/29 07:57:46;;;;;;;4.12;2.90;;;;;;;16.11;100.00;100814.88;1672674;84;21070;-83
2022/05/29 08:00:17;;;;;;;3.25;2.70;;;;;;;16.07;100.00;100811.22;1680003;84;21884;-83
2022/05/29 08:02:45;;;;;;;4.10;3.10;;;;;;;16.09;100.00;100818.97;1672520;84;21073;-82
2022/05/29 08:05:17;;;;;;;7.45;3.10;;;;;;;16.11;100.00;100817.00;1680185;84;21032;-84
2022/05/29 08:07:47;;;;;;;5.10;3.00;;;;;;;16.13;100.00;100823.45;1680306;84;21060;-82
2022/05/29 08:10:18;;;;;;;5.58;3.55;;;;;;;16.08;100.00;100827.33;1680356;84;21609;-84
2022/05/29 08:12:46;;;;;;;2.90;2.70;;;;;;;15.96;100.00;100831.13;1680204;84;21247;-81
2022/05/29 08:15:14;;;;;;;4.72;3.27;;;;;;;15.81;100.00;100828.61;1680105;84;21613;-82
2022/05/29 08:17:41;;;;;;;3.87;3.15;;;;;;;15.71;100.00;100829.94;1672804;83;21092;-81
2022/05/29 08:20:12;;;;;;;3.50;3.00;;;;;;;15.64;100.00;100835.42;1663965;84;21040;-83
2022/05/29 08:22:40;;;;;;;4.12;2.98;;;;;;;15.55;100.00;100841.88;1685205;84;21100;-82
2022/05/29 08:30:46;;;;;;;3.62;2.90;;;;;;;15.29;100.00;100855.62;1690637;83;21077;-84
2022/05/29 08:33:24;;;;;;;3.67;2.77;;;;;;;15.21;100.00;100859.89;1689851;83;21004;-82
2022/05/29 08:36:05;;;;;;;5.28;4.10;;;;;;;15.14;100.00;100856.52;1690714;83;21017;-82
2022/05/29 08:38:34;;;;;;;3.90;3.40;;;;;;;15.09;100.00;100864.45;1661210;84;21628;-82
2022/05/29 08:41:14;;;;;;;3.62;2.75;;;;;;;15.01;100.00;100861.23;1685244;83;21787;-87
2022/05/29 08:43:52;;;;;;;;;;;;;;;14.97;100.00;100867.70;1689413;83;21553;-84
2022/05/29 08:46:24;;;;;;;4.45;2.77;;;;;;;14.94;100.00;100861.44;1669202;83;20145;-82
2022/05/29 08:48:54;;;;;;;4.70;2.80;;;;;;;14.88;100.00;100861.50;1687454;83;21009;-83
2022/05/29 08:52:00;;;;;;;6.58;3.30;;;;;;;14.86;100.00;100867.36;1686166;83;21092;-81
2022/05/29 08:55:09;;;;;;;3.35;3.05;;;;;;;14.86;100.00;100879.66;1690802;83;21569;-81
2022/05/29 08:57:50;;;;;;;7.00;3.10;;;;;;;14.82;100.00;100885.16;1690793;83;21040;-81
2022/05/29 09:01:09;;;;;;;3.45;2.77;;;;;;;14.77;100.00;100892.61;1686573;83;21024;-81
2022/05/29 09:03:50;;;;;;;3.47;2.80;;;;;;;14.74;100.00;100889.44;1689947;83;21545;-80
2022/05/29 09:06:29;;;;;;;4.17;3.02;;;;;;;14.72;100.00;100900.03;1682993;83;21192;-81
2022/05/29 09:09:24;;;;;;;3.75;2.95;;;;;;;14.71;100.00;100914.59;1684129;83;21155;-81
2022/05/29 09:11:57;;;;;;;8.90;3.30;;;;;;;14.68;100.00;100928.80;1689304;83;21081;-82
2022/05/29 09:14:54;;;;;;;4.28;3.02;;;;;;;14.63;100.00;100940.12;1684576;83;21671;-81
2022/05/29 09:17:35;;;;;;;4.35;2.85;;;;;;;14.57;100.00;100943.28;1688044;83;21059;-80
2022/05/29 09:20:10;;;;;;;4.12;2.98;;;;;;;14.55;100.00;100938.64;1665899;84;21290;-80
2022/05/29 09:22:44;;;;;;;4.58;3.62;;;;;;;14.53;100.00;100941.41;1660076;85;22377;-82
2022/05/29 09:25:34;;;;;;;4.40;3.37;;;;;;;14.48;100.00;100947.05;1672491;84;21395;-81
2022/05/29 09:28:07;;;;;;;4.47;3.37;;;;;;;14.39;100.00;100952.27;1672210;84;21096;-82
2022/05/29 09:30:38;;;;;;;3.90;3.30;;;;;;;14.27;100.00;100943.66;1672233;84;21038;-81
2022/05/29 09:33:19;;;;;;;3.20;2.87;;;;;;;14.22;100.00;100952.41;1672584;84;21245;-82
2022/05/29 09:36:41;;;;;;;3.05;2.72;;;;;;;14.20;100.00;100948.13;1668052;84;20959;-81
2022/05/29 09:39:17;;;;;;;3.33;2.75;;;;;;;14.18;100.00;100951.84;1672659;84;21049;-82
2022/05/29 09:41:57;;;;;;;3.52;2.60;;;;;;;14.18;100.00;100962.32;1670465;84;21108;-79
2022/05/29 09:44:25;;;;;;;3.30;2.87;;;;;;;14.17;100.00;100971.95;1663387;84;21037;-81
2022/05/29 09:49:40;;;;;;;5.37;2.80;;;;;;;14.15;100.00;100980.89;1672458;84;21165;-80
2022/05/29 09:49:41;;;;;;;3.20;2.90;;;;;;;14.12;100.00;100985.92;1669413;84;21053;-81
2022/05/29 09:52:22;;;;;;;4.10;2.70;;;;;;;14.10;100.00;100987.83;1672473;84;21630;-82
2022/05/29 09:55:08;;;;;;;4.40;2.77;;;;;;;14.04;100.00;100996.20;1671345;84;24621;-81
2022/05/29 09:57:56;;;;;;;4.25;2.90;;;;;;;14.04;100.00;101000.14;1667310;84;21151;-80
2022/05/29 10:00:30;;;;;;;5.28;3.17;;;;;;;14.06;100.00;100989.52;1671426;84;21179;-79
2022/05/29 10:02:59;;;;;;;5.87;3.10;;;;;;;14.07;100.00;100975.48;1672227;84;21179;-82
2022/05/29 10:05:33;;;;;;;3.62;2.50;;;;;;;14.06;100.00;100978.56;1672525;84;21076;-81
2022/05/29 10:08:30;;;;;;;3.00;2.52;;;;;;;14.07;100.00;100971.55;1672542;84;21022;-81
2022/05/29 10:11:24;;;;;;;3.83;2.77;;;;;;;14.06;100.00;100967.27;1667486;84;21095;-83
2022/05/29 10:13:52;;;;;;;5.08;2.70;;;;;;;14.07;100.00;100968.44;1668868;84;21523;-81
2022/05/29 10:16:36;;;;;;;3.95;2.60;;;;;;;14.12;100.00;100974.14;1665993;84;21042;-80
2022/05/29 10:19:13;;;;;;;2.85;2.55;;;;;;;14.14;100.00;100981.36;1668500;84;21126;-81
2022/05/29 10:21:49;;;;;;;2.70;2.50;;;;;;;14.15;100.00;100979.59;1707700;82;21163;-79
2022/05/29 10:24:25;;;;;;;3.90;2.45;;;;;;;14.19;100.00;100985.75;1669453;84;21621;-85
2022/05/29 10:26:56;;;;;;;3.75;2.40;;;;;;;14.23;100.00;100988.09;1666812;84;21874;-79
2022/05/29 10:29:28;;;;;;;;;;;;;;;14.27;100.00;100992.13;1675870;84;21021;-81
2022/05/29 10:31:57;;;;;;;5.00;2.50;;;;;;;14.29;100.00;100988.90;1707393;82;20172;-80
2022/05/29 10:34:32;;;;;;;5.12;2.83;;;;;;;14.33;100.00;100981.11;1725571;82;21647;-82
2022/05/29 10:37:01;;;;;;;3.60;2.58;;;;;;;14.37;100.00;100972.05;1737045;82;21413;-81
2022/05/29 10:39:32;;;;;;;3.67;2.65;;;;;;;14.37;100.00;100962.87;1740045;82;21829;-81
2022/05/29 10:41:59;;;;;;;3.12;2.72;;;;;;;14.37;100.00;100957.64;1740400;82;21087;-81
2022/05/29 10:44:43;;;;;;;4.17;2.40;;;;;;;14.36;100.00;100948.94;1739630;82;21019;-81
2022/05/29 10:47:31;;;;;;;3.65;2.47;;;;;;;14.39;100.00;100945.71;1740042;82;20992;-80
2022/05/29 10:50:22;;;;;;;3.22;2.80;;;;;;;14.47;100.00;100946.70;1736152;82;21607;-81
2022/05/29 10:53:20;;;;;;;4.75;2.58;;;;;;;14.57;100.00;100948.06;1739674;82;21104;-81
2022/05/29 10:56:10;;;;;;;3.20;2.62;;;;;;;14.64;100.00;100952.27;1740037;82;21076;-81
2022/05/29 10:58:58;;;;;;;4.83;2.42;;;;;;;14.62;100.00;100947.16;1740106;82;21035;-82
2022/05/29 11:05:07;;;;;;;4.62;2.37;;;;;;;14.56;100.00;100940.31;1739995;82;21508;-82
2022/05/29 11:08:16;;;;;;;3.35;2.10;;;;;;;14.62;100.00;100938.48;1739177;82;21257;-81
2022/05/29 11:11:09;;;;;;;2.72;2.33;;;;;;;14.68;100.00;100937.98;1738497;82;20935;-82
2022/05/29 11:13:56;;;;;;;3.50;2.40;;;;;;;14.77;100.00;100934.55;1738556;82;21045;-83
2022/05/29 11:17:11;;;;;;;3.02;2.42;;;;;;;14.93;100.00;100936.63;1735118;82;21030;-81
2022/05/29 11:20:07;;;;;;;2.47;2.17;;;;;;;15.09;100.00;100932.18;1738494;82;21097;-81
2022/05/29 11:23:04;;;;;;;2.40;2.15;;;;;;;15.24;100.00;100924.70;1738432;82;21144;-82
2022/05/29 11:25:40;;;;;;;3.70;2.40;;;;;;;15.38;100.00;100922.16;1738506;82;21514;-86
2022/05/29 11:28:37;;;;;;;3.47;2.40;;;;;;;15.46;100.00;100919.66;1731655;82;21504;-82
2022/05/29 11:31:19;;;;;;;3.05;2.20;;;;;;;15.45;100.00;100921.13;1738773;82;21492;-82
2022/05/29 11:34:15;;;;;;;;;;;;;;;15.48;100.00;100922.63;1739085;82;20959;-84
2022/05/29 11:37:24;;;;;;;2.40;2.20;;;;;;;15.58;100.00;100925.58;1738636;82;21831;-83
2022/05/29 11:40:17;;;;;;;4.12;2.25;;;;;;;15.67;100.00;100933.58;1734553;82;21089;-84
2022/05/29 11:43:02;;;;;;;5.50;2.33;;;;;;;15.70;100.00;100930.69;1738210;82;21022;-83
2022/05/29 11:51:46;;;;;;;14.75;6.53;;;;;;;15.94;100.00;100918.41;1738332;82;21147;-82
2022/05/29 11:54:18;;;;;;;3.55;2.90;;;;;;;15.91;100.00;100922.63;1733417;82;21117;-85
2022/05/29 11:57:09;;;;;;;3.85;3.05;;;;;;;15.89;100.00;100912.78;1732299;82;21089;-84
2022/05/29 12:00:15;;;;;;;6.47;2.83;;;;;;;15.91;100.00;100916.06;1733907;81;21003;-81
2022/05/29 12:03:20;;;;;;;3.75;2.50;;;;;;;15.92;100.00;100905.91;1670898;83;21644;-81
2022/05/29 12:05:53;;;;;;;4.28;2.35;;;;;;;15.92;100.00;100909.84;1683998;83;21109;-84
2022/05/29 12:08:36;;;;;;;3.45;3.10;;;;;;;15.91;100.00;100913.44;1671368;83;21051;-81
2022/05/29 12:11:19;;;;;;;3.20;2.87;;;;;;;15.87;100.00;100910.77;1672297;85;21575;-82
2022/05/29 12:14:25;;;;;;;5.85;3.98;;;;;;;15.83;100.00;100917.23;1675151;85;21089;-84
2022/05/29 12:17:18;;;;;;;4.12;3.00;;;;;;;15.83;100.00;100915.92;1674626;85;21070;-81
2022/05/29 12:20:20;;;;;;;4.22;2.90;;;;;;;15.84;100.00;100918.45;1675998;84;22100;-86
2022/05/29 12:23:01;;;;;;;4.53;3.27;;;;;;;15.85;100.00;100927.14;1663941;84;21062;-82
2022/05/29 12:25:57;;;;;;;3.60;3.00;;;;;;;15.88;100.00;100919.81;1663300;84;21526;-83
2022/05/29 12:28:50;;;;;;;2.90;2.70;;;;;;;15.91;100.00;100915.59;1640975;86;21104;-84
2022/05/29 12:31:34;;;;;;;4.92;2.83;;;;;;;15.90;100.00;100907.38;1664755;84;21065;-81
2022/05/29 12:34:02;;;;;;;3.87;2.72;;;;;;;15.90;100.00;100916.56;1666048;84;21257;-85